<?xml version="1.0" encoding="UTF-8"?>
<gpx version="1.1" creator="2bulu-scraper" xmlns="http://www.topografix.com/GPX/1/1">
  <metadata><name>富顺县友爱村</name><desc>source: 2bulu.com trackId=88957506; exported 2026-09-01T14:58:59.113Z</desc>
    <bounds minlat="29.2672807" minlon="104.9685672" maxlat="29.2827334" maxlon="104.9857585"/>
    <link href="https://www.2bulu.com/track/t-3kk2VdxHbQzp%252FR2KBg5Tzw%253D%253D.htm"><text>2bulu 源页面</text></link>
  </metadata>
  <wpt lat="29.2794981" lon="104.9685672"><ele>280</ele><name>10队烂包塘，灌70亩，管护人：付过金；坝高3米，左放水左溢洪，右梯损坏，无栏杆，砖砌坝渗漏裂缝不清淤
        </name></wpt>
  <wpt lat="29.279506" lon="104.9685673"><ele>284</ele><name>
        </name></wpt>
  <wpt lat="29.2794218" lon="104.9687022"><ele>284</ele><name>过车塘
        </name></wpt>
  <wpt lat="29.2809983" lon="104.9761436"><ele>279</ele><name>11社方田堰塘.邓贤德管护，灌70亩，转坝左放水无泄洪栏杆梯步，坝体开裂，坝高2.5米
        </name></wpt>
  <wpt lat="29.2805012" lon="104.976603"><ele>277</ele><name>主坝
        </name></wpt>
  <wpt lat="29.2805184" lon="104.9765999"><ele>279</ele><name>清淤50公分，周边清杂，副边削坡
        </name></wpt>
  <wpt lat="29.2827334" lon="104.9780691"><ele>280</ele><name>11社付家咀堰塘 集体管护 灌25亩，左放水和梯步，无溢洪无栏杆，砖坝垮塌坝高2.5米，清淤0.5
        </name></wpt>
  <wpt lat="29.2823588" lon="104.9779659"><ele>273</ele><name>
        </name></wpt>
  <wpt lat="29.2823625" lon="104.9779709"><ele>272</ele><name>
        </name></wpt>
  <wpt lat="29.2823591" lon="104.9779784"><ele>272</ele><name>坝高2.5
        </name></wpt>
  <wpt lat="29.2826701" lon="104.9778157"><ele>256</ele><name>
        </name></wpt>
  <wpt lat="29.2807018" lon="104.9720566"><ele>289</ele><name>无来水，改造意义不大，取消，另一个地方增加
        </name></wpt>
  <wpt lat="29.2795476" lon="104.9735236"><ele>292</ele><name>11队大田堰塘，灌40亩李清富管护（取消，难协调）
        </name></wpt>
  <wpt lat="29.2698497" lon="104.9844991"><ele>301</ele><name>13社鲢鱼洞水库（没上水利局备案，实际是个大山坪塘）灌150亩，钟传君管护，条石坝高3米，左放水无溢洪道
        </name></wpt>
  <wpt lat="29.2698893" lon="104.9844328"><ele>304</ele><name>无梯步栏杆，坝体渗漏，放水设施老化，清淤50公分，坝体周边清杂
        </name></wpt>
  <wpt lat="29.2698783" lon="104.9844191"><ele>303</ele><name>房下那边是主坝
        </name></wpt>
  <wpt lat="29.2730778" lon="104.9856472"><ele>288</ele><name>13队山背后堰塘，无来水，综合效益不高，待定
        </name></wpt>
  <wpt lat="29.2731529" lon="104.9857585"><ele>290</ele><name>彭智金管护，灌15亩，条石坝渗漏，左放水，无溢洪道，右梯步，无栏杆，塘内清淤0.5，需求还是较大
        </name></wpt>
  <wpt lat="29.2731622" lon="104.985841"><ele>307</ele><name>
        </name></wpt>
  <wpt lat="29.2727213" lon="104.9843791"><ele>307</ele><name>新增路
        </name></wpt>
  <wpt lat="29.2728065" lon="104.9843511"><ele>301</ele><name>
        </name></wpt>
  <wpt lat="29.2737777" lon="104.9846123"><ele>281</ele><name>
        </name></wpt>
  <wpt lat="29.274046" lon="104.9845696"><ele>278</ele><name>土质放水坝高2米，灌50亩，戴智拳管护，右放水，无其他设施，清淤0.5
        </name></wpt>
  <wpt lat="29.2740733" lon="104.984472"><ele>284</ele><name>13社新堰塘
        </name></wpt>
  <wpt lat="29.2740168" lon="104.9845068"><ele>286</ele><name>
        </name></wpt>
  <wpt lat="29.2737573" lon="104.9846115"><ele>284</ele><name>
        </name></wpt>
  <wpt lat="29.2735579" lon="104.9845894"><ele>287</ele><name>
        </name></wpt>
  <wpt lat="29.2731407" lon="104.9844182"><ele>295</ele><name>
        </name></wpt>
  <wpt lat="29.2727867" lon="104.9843991"><ele>295</ele><name>
        </name></wpt>
  <wpt lat="29.2727021" lon="104.9843826"><ele>303</ele><name>
        </name></wpt>
  <wpt lat="29.272565" lon="104.98489"><ele>307</ele><name>初设的下八斗丘那个堰塘取消
        </name></wpt>
  <wpt lat="29.272565" lon="104.98489"><ele>307</ele><name>初设03塘取消
        </name></wpt>
  <wpt lat="29.2705865" lon="104.9833278"><ele>309</ele><name>蓄水池位置
        </name></wpt>
  <wpt lat="29.2706716" lon="104.9833155"><ele>305</ele><name>蓄水池位置
        </name></wpt>
  <wpt lat="29.2706716" lon="104.9833155"><ele>305</ele><name>新建蓄水池
        </name></wpt>
  <wpt lat="29.270697" lon="104.9831769"><ele>303</ele><name>新建蓄水池无管网来水
        </name></wpt>
  <wpt lat="29.2696066" lon="104.981867"><ele>299</ele><name>刚才蓄水池位置属于5社
        </name></wpt>
  <trk><name>富顺县友爱村</name>
      <trkseg>
        <trkpt lat="29.2794981" lon="104.9685672"><ele>279.95</ele><time>2026-08-29T17:51:09.000Z</time></trkpt>
        <trkpt lat="29.2794981" lon="104.9685672"><ele>279.95</ele><time>2026-08-29T18:01:41.000Z</time></trkpt>
      </trkseg>
      <trkseg>
        <trkpt lat="29.2793459" lon="104.9688596"><ele>279.95</ele><time>2026-08-29T18:01:50.000Z</time></trkpt>
        <trkpt lat="29.2793459" lon="104.9688596"><ele>279.95</ele><time>2026-08-29T18:01:53.000Z</time></trkpt>
        <trkpt lat="29.2792234" lon="104.9689689"><ele>281.49</ele><time>2026-08-29T18:01:57.000Z</time></trkpt>
        <trkpt lat="29.2792234" lon="104.9689689"><ele>281.49</ele><time>2026-08-29T18:02:00.000Z</time></trkpt>
      </trkseg>
      <trkseg>
        <trkpt lat="29.281028" lon="104.9759958"><ele>282.35</ele><time>2026-08-29T18:08:59.000Z</time></trkpt>
        <trkpt lat="29.281028" lon="104.9759958"><ele>282.35</ele><time>2026-08-29T18:09:00.000Z</time></trkpt>
        <trkpt lat="29.2809983" lon="104.9761436"><ele>282.49</ele><time>2026-08-29T18:09:02.000Z</time></trkpt>
        <trkpt lat="29.2809756" lon="104.9762623"><ele>281.01</ele><time>2026-08-29T18:11:44.000Z</time></trkpt>
        <trkpt lat="29.2809231" lon="104.9763467"><ele>278.73</ele><time>2026-08-29T18:11:56.000Z</time></trkpt>
        <trkpt lat="29.2808458" lon="104.9764114"><ele>277.18</ele><time>2026-08-29T18:12:06.000Z</time></trkpt>
        <trkpt lat="29.2807619" lon="104.9764538"><ele>276.38</ele><time>2026-08-29T18:12:22.000Z</time></trkpt>
        <trkpt lat="29.2806753" lon="104.9765107"><ele>275.73</ele><time>2026-08-29T18:14:00.000Z</time></trkpt>
        <trkpt lat="29.2805869" lon="104.9765905"><ele>275.41</ele><time>2026-08-29T18:14:22.000Z</time></trkpt>
        <trkpt lat="29.2805012" lon="104.976603"><ele>275.61</ele><time>2026-08-29T18:14:46.000Z</time></trkpt>
        <trkpt lat="29.2805012" lon="104.976603"><ele>275.61</ele><time>2026-08-29T18:18:12.000Z</time></trkpt>
      </trkseg>
      <trkseg>
        <trkpt lat="29.2827334" lon="104.9780691"><ele>276.27</ele><time>2026-08-29T18:24:39.000Z</time></trkpt>
        <trkpt lat="29.2827334" lon="104.9780691"><ele>276.27</ele><time>2026-08-29T18:24:41.000Z</time></trkpt>
        <trkpt lat="29.2826309" lon="104.9780606"><ele>277.7</ele><time>2026-08-29T18:25:07.000Z</time></trkpt>
        <trkpt lat="29.2824681" lon="104.9779909"><ele>277.06</ele><time>2026-08-29T18:26:25.000Z</time></trkpt>
        <trkpt lat="29.2823695" lon="104.9780146"><ele>275.07</ele><time>2026-08-29T18:26:35.000Z</time></trkpt>
        <trkpt lat="29.2822797" lon="104.9780434"><ele>273.62</ele><time>2026-08-29T18:26:45.000Z</time></trkpt>
        <trkpt lat="29.2821904" lon="104.978072"><ele>272.99</ele><time>2026-08-29T18:26:55.000Z</time></trkpt>
        <trkpt lat="29.2822638" lon="104.9779943"><ele>273.06</ele><time>2026-08-29T18:29:01.000Z</time></trkpt>
        <trkpt lat="29.2823518" lon="104.977971"><ele>273.44</ele><time>2026-08-29T18:29:27.000Z</time></trkpt>
        <trkpt lat="29.2823518" lon="104.977971"><ele>273.44</ele><time>2026-08-29T18:31:54.000Z</time></trkpt>
        <trkpt lat="29.2823518" lon="104.977971"><ele>273.44</ele><time>2026-08-29T18:32:33.000Z</time></trkpt>
        <trkpt lat="29.2823518" lon="104.977971"><ele>273.44</ele><time>2026-08-29T18:32:52.000Z</time></trkpt>
      </trkseg>
      <trkseg>
        <trkpt lat="29.2807018" lon="104.9720566"><ele>273.59</ele><time>2026-08-29T18:39:08.000Z</time></trkpt>
        <trkpt lat="29.2807018" lon="104.9720566"><ele>273.59</ele><time>2026-08-29T18:39:23.000Z</time></trkpt>
        <trkpt lat="29.2807018" lon="104.9720566"><ele>273.59</ele><time>2026-08-29T18:41:22.000Z</time></trkpt>
      </trkseg>
      <trkseg>
        <trkpt lat="29.2795737" lon="104.9736304"><ele>280.42</ele><time>2026-08-29T18:43:28.000Z</time></trkpt>
        <trkpt lat="29.2795737" lon="104.9736304"><ele>280.42</ele><time>2026-08-29T18:47:43.000Z</time></trkpt>
        <trkpt lat="29.2794545" lon="104.9736578"><ele>281.67</ele><time>2026-08-29T18:55:47.000Z</time></trkpt>
        <trkpt lat="29.2793257" lon="104.9736687"><ele>280.18</ele><time>2026-08-29T18:55:51.000Z</time></trkpt>
        <trkpt lat="29.2791929" lon="104.973666"><ele>278.96</ele><time>2026-08-29T18:55:55.000Z</time></trkpt>
        <trkpt lat="29.2790851" lon="104.9736543"><ele>278.25</ele><time>2026-08-29T18:55:59.000Z</time></trkpt>
        <trkpt lat="29.2789845" lon="104.9736495"><ele>277.84</ele><time>2026-08-29T18:56:03.000Z</time></trkpt>
        <trkpt lat="29.2789005" lon="104.973757"><ele>277.57</ele><time>2026-08-29T18:56:07.000Z</time></trkpt>
        <trkpt lat="29.2788986" lon="104.9739975"><ele>277.29</ele><time>2026-08-29T18:56:09.000Z</time></trkpt>
        <trkpt lat="29.2787088" lon="104.9740104"><ele>277.23</ele><time>2026-08-29T18:56:19.000Z</time></trkpt>
        <trkpt lat="29.2785691" lon="104.9739484"><ele>277.33</ele><time>2026-08-29T18:56:21.000Z</time></trkpt>
        <trkpt lat="29.278498" lon="104.973882"><ele>277.61</ele><time>2026-08-29T18:56:23.000Z</time></trkpt>
        <trkpt lat="29.2784462" lon="104.9737966"><ele>277.83</ele><time>2026-08-29T18:56:27.000Z</time></trkpt>
        <trkpt lat="29.2784889" lon="104.9737081"><ele>277.64</ele><time>2026-08-29T18:56:47.000Z</time></trkpt>
        <trkpt lat="29.2784143" lon="104.9735513"><ele>277.83</ele><time>2026-08-29T18:56:51.000Z</time></trkpt>
        <trkpt lat="29.2782754" lon="104.9734451"><ele>278.14</ele><time>2026-08-29T18:56:53.000Z</time></trkpt>
        <trkpt lat="29.2783048" lon="104.9733421"><ele>278.35</ele><time>2026-08-29T18:56:55.000Z</time></trkpt>
        <trkpt lat="29.2783648" lon="104.9732625"><ele>278.54</ele><time>2026-08-29T18:57:11.000Z</time></trkpt>
        <trkpt lat="29.2783935" lon="104.9731511"><ele>278.81</ele><time>2026-08-29T18:57:27.000Z</time></trkpt>
        <trkpt lat="29.2783409" lon="104.9730712"><ele>278.63</ele><time>2026-08-29T18:57:29.000Z</time></trkpt>
        <trkpt lat="29.2782425" lon="104.9730169"><ele>278.5</ele><time>2026-08-29T18:57:31.000Z</time></trkpt>
        <trkpt lat="29.2781333" lon="104.9729795"><ele>278.39</ele><time>2026-08-29T18:57:33.000Z</time></trkpt>
        <trkpt lat="29.278031" lon="104.9729388"><ele>278.27</ele><time>2026-08-29T18:57:35.000Z</time></trkpt>
        <trkpt lat="29.2779386" lon="104.9729031"><ele>277.8</ele><time>2026-08-29T18:57:37.000Z</time></trkpt>
        <trkpt lat="29.2777809" lon="104.972865"><ele>277.27</ele><time>2026-08-29T18:57:41.000Z</time></trkpt>
        <trkpt lat="29.2776626" lon="104.9728661"><ele>276.91</ele><time>2026-08-29T18:57:43.000Z</time></trkpt>
        <trkpt lat="29.2775487" lon="104.9728937"><ele>276.77</ele><time>2026-08-29T18:57:47.000Z</time></trkpt>
        <trkpt lat="29.2775211" lon="104.9729853"><ele>277.21</ele><time>2026-08-29T18:57:57.000Z</time></trkpt>
        <trkpt lat="29.2775236" lon="104.9731398"><ele>277.51</ele><time>2026-08-29T18:58:03.000Z</time></trkpt>
        <trkpt lat="29.2775379" lon="104.9733292"><ele>277.64</ele><time>2026-08-29T18:58:07.000Z</time></trkpt>
        <trkpt lat="29.277519" lon="104.9735194"><ele>277.51</ele><time>2026-08-29T18:58:11.000Z</time></trkpt>
        <trkpt lat="29.2774764" lon="104.9736396"><ele>277.87</ele><time>2026-08-29T18:58:13.000Z</time></trkpt>
        <trkpt lat="29.2774281" lon="104.9737421"><ele>278.72</ele><time>2026-08-29T18:58:15.000Z</time></trkpt>
        <trkpt lat="29.2773778" lon="104.9738302"><ele>279.81</ele><time>2026-08-29T18:58:17.000Z</time></trkpt>
        <trkpt lat="29.277315" lon="104.9739022"><ele>280.7</ele><time>2026-08-29T18:58:19.000Z</time></trkpt>
        <trkpt lat="29.2772311" lon="104.9739392"><ele>281.28</ele><time>2026-08-29T18:58:21.000Z</time></trkpt>
        <trkpt lat="29.2771293" lon="104.9739471"><ele>281.92</ele><time>2026-08-29T18:58:23.000Z</time></trkpt>
        <trkpt lat="29.2770219" lon="104.9739433"><ele>282.38</ele><time>2026-08-29T18:58:25.000Z</time></trkpt>
        <trkpt lat="29.2769092" lon="104.9739598"><ele>282.76</ele><time>2026-08-29T18:58:27.000Z</time></trkpt>
        <trkpt lat="29.2768097" lon="104.9740115"><ele>283.25</ele><time>2026-08-29T18:58:29.000Z</time></trkpt>
        <trkpt lat="29.2767288" lon="104.9740852"><ele>283.33</ele><time>2026-08-29T18:58:31.000Z</time></trkpt>
        <trkpt lat="29.2766189" lon="104.9742032"><ele>283.1</ele><time>2026-08-29T18:58:35.000Z</time></trkpt>
        <trkpt lat="29.2765417" lon="104.974306"><ele>283.13</ele><time>2026-08-29T18:58:39.000Z</time></trkpt>
        <trkpt lat="29.276522" lon="104.974425"><ele>283.42</ele><time>2026-08-29T18:58:43.000Z</time></trkpt>
        <trkpt lat="29.2765825" lon="104.9745716"><ele>283.35</ele><time>2026-08-29T18:58:47.000Z</time></trkpt>
        <trkpt lat="29.2766712" lon="104.9746967"><ele>283.27</ele><time>2026-08-29T18:58:51.000Z</time></trkpt>
        <trkpt lat="29.2766793" lon="104.9748125"><ele>283.4</ele><time>2026-08-29T18:58:57.000Z</time></trkpt>
        <trkpt lat="29.276645" lon="104.9749193"><ele>284.01</ele><time>2026-08-29T18:59:05.000Z</time></trkpt>
        <trkpt lat="29.2766158" lon="104.9750621"><ele>283.87</ele><time>2026-08-29T18:59:11.000Z</time></trkpt>
        <trkpt lat="29.2765731" lon="104.9751892"><ele>283.98</ele><time>2026-08-29T18:59:15.000Z</time></trkpt>
        <trkpt lat="29.276517" lon="104.9753154"><ele>283.87</ele><time>2026-08-29T18:59:19.000Z</time></trkpt>
        <trkpt lat="29.2764656" lon="104.9754473"><ele>283.96</ele><time>2026-08-29T18:59:23.000Z</time></trkpt>
        <trkpt lat="29.2764293" lon="104.9755842"><ele>284.18</ele><time>2026-08-29T18:59:27.000Z</time></trkpt>
        <trkpt lat="29.276397" lon="104.975735"><ele>284.42</ele><time>2026-08-29T18:59:31.000Z</time></trkpt>
        <trkpt lat="29.2763573" lon="104.9758942"><ele>284.11</ele><time>2026-08-29T18:59:35.000Z</time></trkpt>
        <trkpt lat="29.276324" lon="104.9760098"><ele>283.47</ele><time>2026-08-29T18:59:37.000Z</time></trkpt>
        <trkpt lat="29.2762872" lon="104.976184"><ele>283.12</ele><time>2026-08-29T18:59:41.000Z</time></trkpt>
        <trkpt lat="29.2762591" lon="104.9763073"><ele>282.18</ele><time>2026-08-29T18:59:43.000Z</time></trkpt>
        <trkpt lat="29.2762129" lon="104.9764529"><ele>281.48</ele><time>2026-08-29T18:59:47.000Z</time></trkpt>
        <trkpt lat="29.2761246" lon="104.9765267"><ele>280.45</ele><time>2026-08-29T18:59:51.000Z</time></trkpt>
        <trkpt lat="29.2760199" lon="104.9764798"><ele>279.63</ele><time>2026-08-29T18:59:55.000Z</time></trkpt>
        <trkpt lat="29.2759248" lon="104.9763956"><ele>278.44</ele><time>2026-08-29T18:59:59.000Z</time></trkpt>
        <trkpt lat="29.2758083" lon="104.97636"><ele>276.79</ele><time>2026-08-29T19:00:03.000Z</time></trkpt>
        <trkpt lat="29.2756777" lon="104.9764439"><ele>275.82</ele><time>2026-08-29T19:00:07.000Z</time></trkpt>
        <trkpt lat="29.2755885" lon="104.976576"><ele>274.97</ele><time>2026-08-29T19:00:11.000Z</time></trkpt>
        <trkpt lat="29.2755443" lon="104.9766996"><ele>274.14</ele><time>2026-08-29T19:00:15.000Z</time></trkpt>
        <trkpt lat="29.2754726" lon="104.9767794"><ele>273.31</ele><time>2026-08-29T19:00:19.000Z</time></trkpt>
        <trkpt lat="29.2753867" lon="104.9768446"><ele>272.48</ele><time>2026-08-29T19:00:23.000Z</time></trkpt>
        <trkpt lat="29.2753061" lon="104.9769218"><ele>271.77</ele><time>2026-08-29T19:00:27.000Z</time></trkpt>
        <trkpt lat="29.2752248" lon="104.9770099"><ele>271.17</ele><time>2026-08-29T19:00:31.000Z</time></trkpt>
        <trkpt lat="29.2751581" lon="104.9771188"><ele>270.63</ele><time>2026-08-29T19:00:35.000Z</time></trkpt>
        <trkpt lat="29.2751185" lon="104.9772458"><ele>270.2</ele><time>2026-08-29T19:00:39.000Z</time></trkpt>
        <trkpt lat="29.2751517" lon="104.977388"><ele>269.85</ele><time>2026-08-29T19:00:43.000Z</time></trkpt>
        <trkpt lat="29.2752181" lon="104.9775346"><ele>269.62</ele><time>2026-08-29T19:00:47.000Z</time></trkpt>
        <trkpt lat="29.2752427" lon="104.9777236"><ele>269.37</ele><time>2026-08-29T19:00:51.000Z</time></trkpt>
        <trkpt lat="29.275252" lon="104.9779159"><ele>269.12</ele><time>2026-08-29T19:00:55.000Z</time></trkpt>
        <trkpt lat="29.2752154" lon="104.9781005"><ele>268.61</ele><time>2026-08-29T19:00:59.000Z</time></trkpt>
        <trkpt lat="29.2750746" lon="104.9781284"><ele>268</ele><time>2026-08-29T19:01:03.000Z</time></trkpt>
        <trkpt lat="29.2749577" lon="104.9780736"><ele>267.74</ele><time>2026-08-29T19:01:05.000Z</time></trkpt>
        <trkpt lat="29.2748551" lon="104.9780034"><ele>267.72</ele><time>2026-08-29T19:01:09.000Z</time></trkpt>
        <trkpt lat="29.2747494" lon="104.9780302"><ele>267.61</ele><time>2026-08-29T19:01:16.000Z</time></trkpt>
        <trkpt lat="29.274633" lon="104.9780935"><ele>273.67</ele><time>2026-08-29T19:01:18.000Z</time></trkpt>
        <trkpt lat="29.2745484" lon="104.9782034"><ele>277.82</ele><time>2026-08-29T19:01:22.000Z</time></trkpt>
        <trkpt lat="29.274522" lon="104.9783422"><ele>278.21</ele><time>2026-08-29T19:01:24.000Z</time></trkpt>
        <trkpt lat="29.2744979" lon="104.9784886"><ele>277.81</ele><time>2026-08-29T19:01:26.000Z</time></trkpt>
        <trkpt lat="29.2744652" lon="104.9786368"><ele>277.58</ele><time>2026-08-29T19:01:28.000Z</time></trkpt>
        <trkpt lat="29.274425" lon="104.9787796"><ele>277.9</ele><time>2026-08-29T19:01:30.000Z</time></trkpt>
        <trkpt lat="29.2743785" lon="104.9789163"><ele>278.64</ele><time>2026-08-29T19:01:32.000Z</time></trkpt>
        <trkpt lat="29.2743246" lon="104.9790468"><ele>279.64</ele><time>2026-08-29T19:01:34.000Z</time></trkpt>
        <trkpt lat="29.2742684" lon="104.9791614"><ele>280.38</ele><time>2026-08-29T19:01:36.000Z</time></trkpt>
        <trkpt lat="29.2742052" lon="104.9792561"><ele>280.92</ele><time>2026-08-29T19:01:38.000Z</time></trkpt>
        <trkpt lat="29.274135" lon="104.9793415"><ele>281.2</ele><time>2026-08-29T19:01:40.000Z</time></trkpt>
        <trkpt lat="29.274049" lon="104.9794081"><ele>281.5</ele><time>2026-08-29T19:01:42.000Z</time></trkpt>
        <trkpt lat="29.2739495" lon="104.9794532"><ele>281.82</ele><time>2026-08-29T19:01:44.000Z</time></trkpt>
        <trkpt lat="29.273841" lon="104.979473"><ele>282.37</ele><time>2026-08-29T19:01:46.000Z</time></trkpt>
        <trkpt lat="29.2737435" lon="104.9794731"><ele>283.12</ele><time>2026-08-29T19:01:48.000Z</time></trkpt>
        <trkpt lat="29.273616" lon="104.9794011"><ele>283.86</ele><time>2026-08-29T19:01:52.000Z</time></trkpt>
        <trkpt lat="29.2735247" lon="104.9792745"><ele>284.98</ele><time>2026-08-29T19:01:56.000Z</time></trkpt>
        <trkpt lat="29.2734629" lon="104.9791651"><ele>286.48</ele><time>2026-08-29T19:01:58.000Z</time></trkpt>
        <trkpt lat="29.2734147" lon="104.9790441"><ele>287.53</ele><time>2026-08-29T19:02:00.000Z</time></trkpt>
        <trkpt lat="29.2733702" lon="104.9789192"><ele>288.34</ele><time>2026-08-29T19:02:02.000Z</time></trkpt>
        <trkpt lat="29.2733376" lon="104.978803"><ele>289.15</ele><time>2026-08-29T19:02:04.000Z</time></trkpt>
        <trkpt lat="29.2732999" lon="104.9787035"><ele>289.74</ele><time>2026-08-29T19:02:06.000Z</time></trkpt>
        <trkpt lat="29.2732048" lon="104.9785923"><ele>290.32</ele><time>2026-08-29T19:02:10.000Z</time></trkpt>
        <trkpt lat="29.2730776" lon="104.9785254"><ele>291.11</ele><time>2026-08-29T19:02:16.000Z</time></trkpt>
        <trkpt lat="29.2729188" lon="104.9785016"><ele>292.36</ele><time>2026-08-29T19:02:20.000Z</time></trkpt>
        <trkpt lat="29.2727523" lon="104.9785235"><ele>293.44</ele><time>2026-08-29T19:02:24.000Z</time></trkpt>
        <trkpt lat="29.272625" lon="104.9785863"><ele>294.25</ele><time>2026-08-29T19:02:28.000Z</time></trkpt>
        <trkpt lat="29.2725212" lon="104.9786926"><ele>294.93</ele><time>2026-08-29T19:02:32.000Z</time></trkpt>
        <trkpt lat="29.2724608" lon="104.9787937"><ele>295.74</ele><time>2026-08-29T19:02:36.000Z</time></trkpt>
        <trkpt lat="29.2723979" lon="104.9789063"><ele>296.7</ele><time>2026-08-29T19:02:40.000Z</time></trkpt>
        <trkpt lat="29.2723323" lon="104.9790403"><ele>297.77</ele><time>2026-08-29T19:02:44.000Z</time></trkpt>
        <trkpt lat="29.2722506" lon="104.9791588"><ele>298.71</ele><time>2026-08-29T19:02:48.000Z</time></trkpt>
        <trkpt lat="29.2721231" lon="104.9792402"><ele>299.99</ele><time>2026-08-29T19:02:52.000Z</time></trkpt>
        <trkpt lat="29.2720163" lon="104.9792846"><ele>301.22</ele><time>2026-08-29T19:02:54.000Z</time></trkpt>
        <trkpt lat="29.2719155" lon="104.9793085"><ele>302.09</ele><time>2026-08-29T19:02:56.000Z</time></trkpt>
        <trkpt lat="29.2718128" lon="104.979316"><ele>302.68</ele><time>2026-08-29T19:02:58.000Z</time></trkpt>
        <trkpt lat="29.2717168" lon="104.9793059"><ele>302.98</ele><time>2026-08-29T19:03:00.000Z</time></trkpt>
        <trkpt lat="29.2715957" lon="104.979333"><ele>303.22</ele><time>2026-08-29T19:03:04.000Z</time></trkpt>
        <trkpt lat="29.2715385" lon="104.9794165"><ele>303.75</ele><time>2026-08-29T19:03:06.000Z</time></trkpt>
        <trkpt lat="29.2715418" lon="104.9795235"><ele>304.23</ele><time>2026-08-29T19:03:08.000Z</time></trkpt>
        <trkpt lat="29.2715596" lon="104.9796455"><ele>304.42</ele><time>2026-08-29T19:03:10.000Z</time></trkpt>
        <trkpt lat="29.2714739" lon="104.9797861"><ele>304.7</ele><time>2026-08-29T19:03:14.000Z</time></trkpt>
        <trkpt lat="29.2713626" lon="104.9798582"><ele>305.53</ele><time>2026-08-29T19:03:16.000Z</time></trkpt>
        <trkpt lat="29.271259" lon="104.979893"><ele>306.17</ele><time>2026-08-29T19:03:18.000Z</time></trkpt>
        <trkpt lat="29.2711087" lon="104.9799101"><ele>306.55</ele><time>2026-08-29T19:03:22.000Z</time></trkpt>
        <trkpt lat="29.2709491" lon="104.9798171"><ele>306.77</ele><time>2026-08-29T19:03:26.000Z</time></trkpt>
        <trkpt lat="29.2708406" lon="104.9797342"><ele>307.1</ele><time>2026-08-29T19:03:28.000Z</time></trkpt>
        <trkpt lat="29.270753" lon="104.9796596"><ele>307.25</ele><time>2026-08-29T19:03:30.000Z</time></trkpt>
        <trkpt lat="29.2706695" lon="104.9795886"><ele>307.15</ele><time>2026-08-29T19:03:32.000Z</time></trkpt>
        <trkpt lat="29.2705946" lon="104.9795119"><ele>307.11</ele><time>2026-08-29T19:03:34.000Z</time></trkpt>
        <trkpt lat="29.2705247" lon="104.9794357"><ele>307.15</ele><time>2026-08-29T19:03:36.000Z</time></trkpt>
        <trkpt lat="29.2703913" lon="104.9793815"><ele>307.22</ele><time>2026-08-29T19:03:40.000Z</time></trkpt>
        <trkpt lat="29.2702779" lon="104.9793889"><ele>307.07</ele><time>2026-08-29T19:03:44.000Z</time></trkpt>
        <trkpt lat="29.2701772" lon="104.9794333"><ele>307.29</ele><time>2026-08-29T19:03:50.000Z</time></trkpt>
        <trkpt lat="29.2700976" lon="104.9795556"><ele>307.89</ele><time>2026-08-29T19:03:56.000Z</time></trkpt>
        <trkpt lat="29.2699996" lon="104.9796638"><ele>308.52</ele><time>2026-08-29T19:04:00.000Z</time></trkpt>
        <trkpt lat="29.2698566" lon="104.9797197"><ele>308.97</ele><time>2026-08-29T19:04:04.000Z</time></trkpt>
        <trkpt lat="29.2697065" lon="104.9798058"><ele>309.32</ele><time>2026-08-29T19:04:08.000Z</time></trkpt>
        <trkpt lat="29.2696181" lon="104.9799047"><ele>309.55</ele><time>2026-08-29T19:04:10.000Z</time></trkpt>
        <trkpt lat="29.2695497" lon="104.9799987"><ele>309.77</ele><time>2026-08-29T19:04:12.000Z</time></trkpt>
        <trkpt lat="29.2694449" lon="104.9800882"><ele>310.01</ele><time>2026-08-29T19:04:16.000Z</time></trkpt>
        <trkpt lat="29.269286" lon="104.9801117"><ele>310.24</ele><time>2026-08-29T19:04:20.000Z</time></trkpt>
        <trkpt lat="29.2691545" lon="104.9801644"><ele>310.47</ele><time>2026-08-29T19:04:24.000Z</time></trkpt>
        <trkpt lat="29.2691063" lon="104.9802791"><ele>310.75</ele><time>2026-08-29T19:04:30.000Z</time></trkpt>
        <trkpt lat="29.2691073" lon="104.9804001"><ele>311.13</ele><time>2026-08-29T19:04:36.000Z</time></trkpt>
        <trkpt lat="29.2691222" lon="104.980569"><ele>311.57</ele><time>2026-08-29T19:04:42.000Z</time></trkpt>
        <trkpt lat="29.269117" lon="104.9807549"><ele>311.8</ele><time>2026-08-29T19:04:46.000Z</time></trkpt>
        <trkpt lat="29.2690704" lon="104.9809464"><ele>311.93</ele><time>2026-08-29T19:04:50.000Z</time></trkpt>
        <trkpt lat="29.2689619" lon="104.9810607"><ele>312.04</ele><time>2026-08-29T19:04:54.000Z</time></trkpt>
        <trkpt lat="29.268831" lon="104.9811141"><ele>312.22</ele><time>2026-08-29T19:04:58.000Z</time></trkpt>
        <trkpt lat="29.2687178" lon="104.9811162"><ele>312.46</ele><time>2026-08-29T19:05:00.000Z</time></trkpt>
        <trkpt lat="29.2686127" lon="104.981091"><ele>312.67</ele><time>2026-08-29T19:05:02.000Z</time></trkpt>
        <trkpt lat="29.2684614" lon="104.9810539"><ele>312.84</ele><time>2026-08-29T19:05:06.000Z</time></trkpt>
        <trkpt lat="29.2683416" lon="104.9810466"><ele>313.04</ele><time>2026-08-29T19:05:08.000Z</time></trkpt>
        <trkpt lat="29.2682295" lon="104.9810585"><ele>313.19</ele><time>2026-08-29T19:05:10.000Z</time></trkpt>
        <trkpt lat="29.2681278" lon="104.9810926"><ele>313.3</ele><time>2026-08-29T19:05:12.000Z</time></trkpt>
        <trkpt lat="29.2680389" lon="104.9811483"><ele>313.43</ele><time>2026-08-29T19:05:14.000Z</time></trkpt>
        <trkpt lat="29.2679275" lon="104.9812712"><ele>313.61</ele><time>2026-08-29T19:05:18.000Z</time></trkpt>
        <trkpt lat="29.2678447" lon="104.9813729"><ele>313.74</ele><time>2026-08-29T19:05:20.000Z</time></trkpt>
        <trkpt lat="29.2677432" lon="104.9814412"><ele>313.8</ele><time>2026-08-29T19:05:22.000Z</time></trkpt>
        <trkpt lat="29.2676455" lon="104.9814043"><ele>313.83</ele><time>2026-08-29T19:05:24.000Z</time></trkpt>
        <trkpt lat="29.2675608" lon="104.9813237"><ele>313.87</ele><time>2026-08-29T19:05:26.000Z</time></trkpt>
        <trkpt lat="29.2674602" lon="104.9812052"><ele>313.86</ele><time>2026-08-29T19:05:30.000Z</time></trkpt>
        <trkpt lat="29.2674019" lon="104.981096"><ele>313.87</ele><time>2026-08-29T19:05:32.000Z</time></trkpt>
        <trkpt lat="29.2673355" lon="104.9810021"><ele>313.99</ele><time>2026-08-29T19:05:36.000Z</time></trkpt>
        <trkpt lat="29.2672807" lon="104.9811213"><ele>314.25</ele><time>2026-08-29T19:05:40.000Z</time></trkpt>
        <trkpt lat="29.2672873" lon="104.9812773"><ele>314.38</ele><time>2026-08-29T19:05:42.000Z</time></trkpt>
        <trkpt lat="29.2673223" lon="104.9814426"><ele>314.49</ele><time>2026-08-29T19:05:44.000Z</time></trkpt>
        <trkpt lat="29.2673673" lon="104.9815788"><ele>314.59</ele><time>2026-08-29T19:05:46.000Z</time></trkpt>
        <trkpt lat="29.2674243" lon="104.9816782"><ele>314.66</ele><time>2026-08-29T19:05:48.000Z</time></trkpt>
        <trkpt lat="29.2674863" lon="104.9817712"><ele>314.74</ele><time>2026-08-29T19:05:50.000Z</time></trkpt>
        <trkpt lat="29.2675613" lon="104.9818923"><ele>314.81</ele><time>2026-08-29T19:05:52.000Z</time></trkpt>
        <trkpt lat="29.2676203" lon="104.9820246"><ele>314.78</ele><time>2026-08-29T19:05:54.000Z</time></trkpt>
        <trkpt lat="29.2676654" lon="104.982145"><ele>314.75</ele><time>2026-08-29T19:05:56.000Z</time></trkpt>
        <trkpt lat="29.2677189" lon="104.9822486"><ele>314.66</ele><time>2026-08-29T19:05:58.000Z</time></trkpt>
        <trkpt lat="29.2677803" lon="104.9823313"><ele>314.55</ele><time>2026-08-29T19:06:00.000Z</time></trkpt>
        <trkpt lat="29.2678538" lon="104.9824086"><ele>314.47</ele><time>2026-08-29T19:06:02.000Z</time></trkpt>
        <trkpt lat="29.2679442" lon="104.9825069"><ele>314.41</ele><time>2026-08-29T19:06:04.000Z</time></trkpt>
        <trkpt lat="29.2680273" lon="104.9826016"><ele>314.37</ele><time>2026-08-29T19:06:06.000Z</time></trkpt>
        <trkpt lat="29.2680332" lon="104.9827202"><ele>314.36</ele><time>2026-08-29T19:06:08.000Z</time></trkpt>
        <trkpt lat="29.2679648" lon="104.9828368"><ele>314.32</ele><time>2026-08-29T19:06:10.000Z</time></trkpt>
        <trkpt lat="29.2678975" lon="104.9829393"><ele>314.27</ele><time>2026-08-29T19:06:12.000Z</time></trkpt>
        <trkpt lat="29.2678602" lon="104.9830894"><ele>314.24</ele><time>2026-08-29T19:06:16.000Z</time></trkpt>
        <trkpt lat="29.267767" lon="104.9832573"><ele>314.21</ele><time>2026-08-29T19:06:20.000Z</time></trkpt>
        <trkpt lat="29.2676915" lon="104.9833683"><ele>314.3</ele><time>2026-08-29T19:06:22.000Z</time></trkpt>
        <trkpt lat="29.2676542" lon="104.9835146"><ele>314.4</ele><time>2026-08-29T19:06:24.000Z</time></trkpt>
        <trkpt lat="29.2676391" lon="104.9836669"><ele>314.51</ele><time>2026-08-29T19:06:26.000Z</time></trkpt>
        <trkpt lat="29.2676453" lon="104.9838213"><ele>314.6</ele><time>2026-08-29T19:06:28.000Z</time></trkpt>
        <trkpt lat="29.2676634" lon="104.983963"><ele>314.71</ele><time>2026-08-29T19:06:30.000Z</time></trkpt>
        <trkpt lat="29.2676903" lon="104.984092"><ele>314.86</ele><time>2026-08-29T19:06:32.000Z</time></trkpt>
        <trkpt lat="29.2677328" lon="104.9842019"><ele>314.94</ele><time>2026-08-29T19:06:34.000Z</time></trkpt>
        <trkpt lat="29.2677863" lon="104.9842957"><ele>315</ele><time>2026-08-29T19:06:36.000Z</time></trkpt>
        <trkpt lat="29.2678502" lon="104.9843769"><ele>315.05</ele><time>2026-08-29T19:06:38.000Z</time></trkpt>
        <trkpt lat="29.2679229" lon="104.9844406"><ele>315.08</ele><time>2026-08-29T19:06:40.000Z</time></trkpt>
        <trkpt lat="29.2680677" lon="104.98449"><ele>315.1</ele><time>2026-08-29T19:06:44.000Z</time></trkpt>
        <trkpt lat="29.2681851" lon="104.9844949"><ele>315.2</ele><time>2026-08-29T19:06:46.000Z</time></trkpt>
        <trkpt lat="29.2682905" lon="104.9844947"><ele>315.24</ele><time>2026-08-29T19:06:48.000Z</time></trkpt>
        <trkpt lat="29.2683872" lon="104.984511"><ele>315.26</ele><time>2026-08-29T19:06:50.000Z</time></trkpt>
        <trkpt lat="29.2684712" lon="104.9845874"><ele>315.27</ele><time>2026-08-29T19:06:54.000Z</time></trkpt>
        <trkpt lat="29.2685348" lon="104.9846793"><ele>315.2</ele><time>2026-08-29T19:06:56.000Z</time></trkpt>
        <trkpt lat="29.2686185" lon="104.9847639"><ele>315.09</ele><time>2026-08-29T19:06:58.000Z</time></trkpt>
        <trkpt lat="29.2687065" lon="104.9848512"><ele>314.91</ele><time>2026-08-29T19:07:00.000Z</time></trkpt>
        <trkpt lat="29.2688098" lon="104.984938"><ele>314.73</ele><time>2026-08-29T19:07:04.000Z</time></trkpt>
        <trkpt lat="29.2689142" lon="104.9848813"><ele>314.56</ele><time>2026-08-29T19:07:08.000Z</time></trkpt>
        <trkpt lat="29.2690524" lon="104.9848246"><ele>314.42</ele><time>2026-08-29T19:07:12.000Z</time></trkpt>
        <trkpt lat="29.2691986" lon="104.9847506"><ele>314.06</ele><time>2026-08-29T19:07:16.000Z</time></trkpt>
        <trkpt lat="29.2692866" lon="104.9846704"><ele>313.79</ele><time>2026-08-29T19:07:18.000Z</time></trkpt>
        <trkpt lat="29.2693683" lon="104.9845672"><ele>313.52</ele><time>2026-08-29T19:07:20.000Z</time></trkpt>
        <trkpt lat="29.2694613" lon="104.9845222"><ele>313.34</ele><time>2026-08-29T19:07:26.000Z</time></trkpt>
        <trkpt lat="29.2694794" lon="104.9845167"><ele>313.26</ele><time>2026-08-29T19:07:50.000Z</time></trkpt>
        <trkpt lat="29.2696018" lon="104.9845647"><ele>311.41</ele><time>2026-08-29T19:09:00.000Z</time></trkpt>
        <trkpt lat="29.2696912" lon="104.9845909"><ele>308.14</ele><time>2026-08-29T19:09:30.000Z</time></trkpt>
        <trkpt lat="29.2697766" lon="104.9845597"><ele>307.09</ele><time>2026-08-29T19:09:46.000Z</time></trkpt>
        <trkpt lat="29.2698497" lon="104.9844991"><ele>306.1</ele><time>2026-08-29T19:10:10.000Z</time></trkpt>
        <trkpt lat="29.2698497" lon="104.9844991"><ele>306.1</ele><time>2026-08-29T19:17:48.000Z</time></trkpt>
      </trkseg>
      <trkseg>
        <trkpt lat="29.2730778" lon="104.9856472"><ele>303.71</ele><time>2026-08-29T19:27:34.000Z</time></trkpt>
        <trkpt lat="29.2730778" lon="104.9856472"><ele>303.71</ele><time>2026-08-29T19:27:35.000Z</time></trkpt>
        <trkpt lat="29.2731542" lon="104.9856711"><ele>297.16</ele><time>2026-08-29T19:27:41.000Z</time></trkpt>
        <trkpt lat="29.2731529" lon="104.9857585"><ele>291.84</ele><time>2026-08-29T19:27:51.000Z</time></trkpt>
        <trkpt lat="29.2731529" lon="104.9857585"><ele>291.84</ele><time>2026-08-29T19:31:59.000Z</time></trkpt>
      </trkseg>
      <trkseg>
        <trkpt lat="29.2727213" lon="104.9843791"><ele>291.15</ele><time>2026-08-29T19:41:54.000Z</time></trkpt>
        <trkpt lat="29.2727213" lon="104.9843791"><ele>291.15</ele><time>2026-08-29T19:42:00.000Z</time></trkpt>
        <trkpt lat="29.2728065" lon="104.9843511"><ele>297.84</ele><time>2026-08-29T19:42:28.000Z</time></trkpt>
        <trkpt lat="29.2728986" lon="104.984348"><ele>299.3</ele><time>2026-08-29T19:42:48.000Z</time></trkpt>
        <trkpt lat="29.2729894" lon="104.9843708"><ele>300.09</ele><time>2026-08-29T19:43:04.000Z</time></trkpt>
        <trkpt lat="29.2730824" lon="104.9843278"><ele>298.61</ele><time>2026-08-29T19:43:20.000Z</time></trkpt>
        <trkpt lat="29.2731641" lon="104.9843674"><ele>297.02</ele><time>2026-08-29T19:43:34.000Z</time></trkpt>
        <trkpt lat="29.2732186" lon="104.9844646"><ele>296.61</ele><time>2026-08-29T19:43:47.000Z</time></trkpt>
        <trkpt lat="29.2733098" lon="104.9845433"><ele>298.84</ele><time>2026-08-29T19:43:59.000Z</time></trkpt>
        <trkpt lat="29.273397" lon="104.9845991"><ele>299.6</ele><time>2026-08-29T19:44:09.000Z</time></trkpt>
        <trkpt lat="29.2734847" lon="104.9845857"><ele>294.99</ele><time>2026-08-29T19:44:18.000Z</time></trkpt>
        <trkpt lat="29.2735838" lon="104.9845755"><ele>290.68</ele><time>2026-08-29T19:44:31.000Z</time></trkpt>
        <trkpt lat="29.2736816" lon="104.9845886"><ele>291.27</ele><time>2026-08-29T19:44:41.000Z</time></trkpt>
        <trkpt lat="29.2737777" lon="104.9846123"><ele>286.92</ele><time>2026-08-29T19:44:55.000Z</time></trkpt>
        <trkpt lat="29.2738668" lon="104.9846442"><ele>284.26</ele><time>2026-08-29T19:45:14.000Z</time></trkpt>
        <trkpt lat="29.2739602" lon="104.9846253"><ele>281.01</ele><time>2026-08-29T19:45:20.000Z</time></trkpt>
        <trkpt lat="29.274046" lon="104.9845696"><ele>279.45</ele><time>2026-08-29T19:45:28.000Z</time></trkpt>
        <trkpt lat="29.2741098" lon="104.9845235"><ele>278.74</ele><time>2026-08-29T19:45:58.000Z</time></trkpt>
        <trkpt lat="29.2740283" lon="104.9845801"><ele>280.31</ele><time>2026-08-29T19:50:10.000Z</time></trkpt>
        <trkpt lat="29.2739417" lon="104.9846155"><ele>282.69</ele><time>2026-08-29T19:50:20.000Z</time></trkpt>
        <trkpt lat="29.273848" lon="104.9846324"><ele>284.31</ele><time>2026-08-29T19:50:32.000Z</time></trkpt>
        <trkpt lat="29.2737573" lon="104.9846115"><ele>284.77</ele><time>2026-08-29T19:50:42.000Z</time></trkpt>
        <trkpt lat="29.2736531" lon="104.9845956"><ele>284.59</ele><time>2026-08-29T19:50:56.000Z</time></trkpt>
        <trkpt lat="29.2735579" lon="104.9845894"><ele>285.5</ele><time>2026-08-29T19:51:04.000Z</time></trkpt>
        <trkpt lat="29.2734578" lon="104.9846059"><ele>286.14</ele><time>2026-08-29T19:51:16.000Z</time></trkpt>
        <trkpt lat="29.2733571" lon="104.9846057"><ele>287.24</ele><time>2026-08-29T19:51:26.000Z</time></trkpt>
        <trkpt lat="29.2732573" lon="104.9845841"><ele>288.88</ele><time>2026-08-29T19:51:36.000Z</time></trkpt>
        <trkpt lat="29.2731936" lon="104.9845078"><ele>291.11</ele><time>2026-08-29T19:51:48.000Z</time></trkpt>
        <trkpt lat="29.2731407" lon="104.9844182"><ele>292.28</ele><time>2026-08-29T19:52:00.000Z</time></trkpt>
        <trkpt lat="29.2731047" lon="104.9843145"><ele>293.49</ele><time>2026-08-29T19:52:14.000Z</time></trkpt>
        <trkpt lat="29.2730294" lon="104.984299"><ele>293.13</ele><time>2026-08-29T19:52:22.000Z</time></trkpt>
        <trkpt lat="29.2729525" lon="104.9843475"><ele>294.09</ele><time>2026-08-29T19:52:36.000Z</time></trkpt>
        <trkpt lat="29.2728662" lon="104.9843421"><ele>293.35</ele><time>2026-08-29T19:52:50.000Z</time></trkpt>
        <trkpt lat="29.2727867" lon="104.9843991"><ele>293.05</ele><time>2026-08-29T19:53:08.000Z</time></trkpt>
        <trkpt lat="29.2727021" lon="104.9843826"><ele>293.79</ele><time>2026-08-29T19:53:24.000Z</time></trkpt>
        <trkpt lat="29.2726083" lon="104.9843534"><ele>297.7</ele><time>2026-08-29T19:53:42.000Z</time></trkpt>
        <trkpt lat="29.2726083" lon="104.9843534"><ele>297.7</ele><time>2026-08-29T19:53:43.000Z</time></trkpt>
        <trkpt lat="29.2726083" lon="104.9843534"><ele>297.7</ele><time>2026-08-29T19:54:51.000Z</time></trkpt>
        <trkpt lat="29.2726083" lon="104.9843534"><ele>297.7</ele><time>2026-08-29T19:55:30.000Z</time></trkpt>
      </trkseg>
      <trkseg>
        <trkpt lat="29.2706716" lon="104.9833155"><ele>301.21</ele><time>2026-08-29T20:19:50.000Z</time></trkpt>
        <trkpt lat="29.2706716" lon="104.9833155"><ele>301.21</ele><time>2026-08-29T20:20:32.000Z</time></trkpt>
        <trkpt lat="29.2706908" lon="104.9832016"><ele>302.64</ele><time>2026-08-29T20:22:48.000Z</time></trkpt>
        <trkpt lat="29.270697" lon="104.9831769"><ele>303.61</ele><time>2026-08-29T20:23:00.000Z</time></trkpt>
        <trkpt lat="29.270697" lon="104.9831769"><ele>303.61</ele><time>2026-08-29T20:23:31.000Z</time></trkpt>
      </trkseg>
      <trkseg>
        <trkpt lat="29.2695328" lon="104.9819966"><ele>303.44</ele><time>2026-08-29T20:32:10.000Z</time></trkpt>
        <trkpt lat="29.2695328" lon="104.9819966"><ele>303.44</ele><time>2026-08-29T20:32:13.000Z</time></trkpt>
        <trkpt lat="29.2694209" lon="104.9819579"><ele>301.17</ele><time>2026-08-29T20:33:05.000Z</time></trkpt>
        <trkpt lat="29.2694209" lon="104.9819579"><ele>301.17</ele><time>2026-08-29T20:33:10.000Z</time></trkpt>
      </trkseg>
  </trk>
</gpx>